Time;durP1;ratioP1;P1;durP2;ratioP2;P2;SDS_P1;SDS_P2;PMS_P1;PMS_P2;Temp;Humidity;BMP_temperature;BMP_pressure;BME280_temperature;BME280_humidity;BME280_pressure;Samples;Min_cycle;Max_cycle;Signal;HPM_P1;HPM_P2
2021/09/25 00:00:29;;;;;;;1.02;0.10;;;18.70;99.90;;;;;;5017666;28;20026;-87
2021/09/25 00:02:56;;;;;;;1.42;0.28;;;19.50;99.90;;;;;;5033034;28;20025;-88
2021/09/25 00:05:24;;;;;;;0.10;0.00;;;17.70;99.90;;;;;;5038856;28;20025;-87
2021/09/25 00:07:50;;;;;;;2.45;0.10;;;17.30;99.90;;;;;;5036419;28;20040;-87
2021/09/25 00:10:16;;;;;;;0.60;0.00;;;18.00;99.90;;;;;;5037432;28;20021;-87
2021/09/25 00:12:45;;;;;;;2.67;0.00;;;17.40;99.90;;;;;;5037460;28;20490;-84
2021/09/25 00:15:11;;;;;;;2.35;0.13;;;17.00;99.90;;;;;;5036561;28;20390;-86
2021/09/25 00:17:36;;;;;;;3.15;0.10;;;20.50;99.90;;;;;;5036107;28;20036;-85
2021/09/25 00:20:03;;;;;;;1.83;0.00;;;19.60;99.90;;;;;;5036933;28;20029;-86
2021/09/25 00:22:29;;;;;;;0.65;0.10;;;17.60;99.90;;;;;;5037099;28;20031;-90
2021/09/25 00:24:54;;;;;;;2.45;0.00;;;20.20;99.90;;;;;;5035769;28;20033;-88
2021/09/25 00:27:20;;;;;;;2.05;0.10;;;20.90;99.90;;;;;;5036927;28;20110;-90
2021/09/25 00:29:45;;;;;;;2.85;0.20;;;17.30;99.90;;;;;;5036063;28;20037;-87
2021/09/25 00:32:11;;;;;;;2.90;0.10;;;17.00;99.90;;;;;;5039564;28;20096;-88
2021/09/25 00:34:36;;;;;;;2.60;0.55;;;17.30;99.90;;;;;;5036435;28;20053;-89
2021/09/25 00:37:02;;;;;;;3.13;0.22;;;20.30;99.90;;;;;;5039119;28;20022;-90
2021/09/25 00:39:28;;;;;;;2.25;0.20;;;17.30;99.90;;;;;;5038237;28;20025;-88
2021/09/25 00:41:53;;;;;;;1.27;0.10;;;20.10;99.90;;;;;;5036100;28;20445;-88
2021/09/25 00:44:21;;;;;;;3.83;0.00;;;17.20;99.90;;;;;;5035231;28;20497;-87
2021/09/25 00:46:46;;;;;;;2.67;0.15;;;19.30;99.90;;;;;;5035096;28;20056;-87
2021/09/25 00:49:18;;;;;;;5.57;0.30;;;18.80;99.90;;;;;;5038398;28;20437;-87
2021/09/25 00:51:43;;;;;;;3.00;0.00;;;19.60;99.90;;;;;;5036868;28;20057;-88
2021/09/25 00:54:09;;;;;;;7.68;0.30;;;17.20;99.90;;;;;;5036449;28;20061;-86
2021/09/25 00:56:36;;;;;;;5.40;0.15;;;19.40;99.90;;;;;;5035932;28;20025;-87
2021/09/25 00:59:04;;;;;;;1.25;0.32;;;18.40;99.90;;;;;;5034803;28;20110;-88
2021/09/25 01:01:30;;;;;;;3.45;0.20;;;17.20;99.90;;;;;;5037406;28;20548;-89
2021/09/25 01:03:57;;;;;;;2.13;0.22;;;20.10;99.90;;;;;;5036449;28;20025;-88
2021/09/25 01:06:22;;;;;;;1.10;0.65;;;18.40;99.90;;;;;;5035726;28;20462;-89
2021/09/25 01:08:48;;;;;;;1.20;0.00;;;18.80;99.90;;;;;;5035392;28;20045;-87
2021/09/25 01:11:14;;;;;;;2.35;0.28;;;19.40;99.90;;;;;;5035873;28;20030;-88
2021/09/25 01:13:39;;;;;;;4.57;0.10;;;17.10;99.90;;;;;;5035484;28;20022;-89
2021/09/25 01:16:05;;;;;;;1.90;0.50;;;17.10;99.90;;;;;;5036415;28;20030;-89
2021/09/25 01:18:32;;;;;;;2.55;0.10;;;18.40;99.90;;;;;;5037007;28;20029;-87
2021/09/25 01:21:06;;;;;;;6.47;0.20;;;17.10;99.90;;;;;;5035574;28;20112;-88
2021/09/25 01:23:32;;;;;;;2.17;0.30;;;17.10;99.90;;;;;;5037198;28;20029;-89
2021/09/25 01:25:59;;;;;;;1.98;0.68;;;17.00;99.90;;;;;;5037777;28;20370;-89
2021/09/25 01:28:25;;;;;;;1.83;0.32;;;19.80;99.90;;;;;;5037798;28;20463;-88
2021/09/25 01:30:51;;;;;;;4.22;0.38;;;16.40;99.90;;;;;;5038606;28;20049;-88
2021/09/25 01:33:33;;;;;;;3.50;0.10;;;17.70;99.90;;;;;;5035571;28;20044;-88
2021/09/25 01:35:59;;;;;;;2.17;0.40;;;17.00;99.90;;;;;;5037013;28;20474;-88
2021/09/25 01:38:25;;;;;;;3.60;0.40;;;16.90;99.90;;;;;;5036819;28;20036;-89
2021/09/25 01:40:54;;;;;;;5.10;0.43;;;17.00;99.90;;;;;;5038572;28;20022;-90
2021/09/25 01:43:20;;;;;;;6.35;0.40;;;17.20;99.90;;;;;;5021443;28;20018;-89
2021/09/25 01:45:46;;;;;;;1.00;0.30;;;16.90;99.90;;;;;;5038374;28;20020;-88
2021/09/25 01:48:12;;;;;;;6.00;0.45;;;17.00;99.90;;;;;;5036276;28;20017;-88
2021/09/25 01:50:39;;;;;;;3.55;0.50;;;19.70;99.90;;;;;;5036851;28;20014;-89
2021/09/25 01:53:05;;;;;;;3.88;0.50;;;16.90;99.90;;;;;;5036558;28;20028;-89
2021/09/25 01:55:31;;;;;;;4.72;0.57;;;19.10;99.90;;;;;;5036075;28;20025;-89
2021/09/25 01:58:00;;;;;;;3.17;0.60;;;16.90;99.90;;;;;;5036219;28;20021;-88
2021/09/25 02:00:25;;;;;;;;;;;17.40;99.90;;;;;;5037207;28;20044;-88
2021/09/25 02:02:55;;;;;;;3.63;1.00;;;16.80;99.90;;;;;;5036728;28;19905;-88
2021/09/25 02:05:22;;;;;;;5.22;0.70;;;14.90;99.90;;;;;;5036736;28;20060;-89
2021/09/25 02:07:48;;;;;;;5.05;0.93;;;18.70;99.90;;;;;;5037325;28;20494;-88
2021/09/25 02:10:16;;;;;;;4.60;1.08;;;16.70;99.90;;;;;;5035520;28;20093;-87
2021/09/25 02:12:42;;;;;;;;;;;16.80;99.90;;;;;;5037186;28;20041;-89
2021/09/25 02:15:09;;;;;;;4.93;1.17;;;17.40;99.90;;;;;;5037469;28;20011;-88
2021/09/25 02:17:35;;;;;;;8.07;1.58;;;16.80;99.90;;;;;;5035408;28;20029;-90
2021/09/25 02:20:02;;;;;;;3.15;0.55;;;16.70;99.90;;;;;;5036071;28;20033;-88
2021/09/25 02:22:28;;;;;;;5.50;0.98;;;16.80;99.90;;;;;;5037714;28;20493;-88
2021/09/25 02:24:53;;;;;;;6.97;1.65;;;16.70;99.90;;;;;;5036978;28;20029;-89
2021/09/25 02:27:19;;;;;;;4.65;1.65;;;16.70;99.90;;;;;;5035330;28;20033;-88
2021/09/25 02:29:45;;;;;;;6.68;1.67;;;16.70;99.90;;;;;;5036080;28;20025;-89
2021/09/25 02:32:11;;;;;;;9.18;1.30;;;16.60;99.90;;;;;;5037213;28;20102;-88
2021/09/25 02:34:38;;;;;;;3.33;1.85;;;17.50;99.90;;;;;;5034571;28;20099;-88
2021/09/25 02:37:05;;;;;;;3.58;0.98;;;16.70;99.90;;;;;;5035621;28;20071;-88
2021/09/25 02:39:32;;;;;;;4.50;1.00;;;16.70;99.90;;;;;;5036475;28;20029;-87
2021/09/25 02:41:57;;;;;;;6.68;1.23;;;16.70;99.90;;;;;;5035241;28;20014;-88
2021/09/25 02:44:23;;;;;;;7.90;2.10;;;17.10;99.90;;;;;;5036844;28;20033;-86
2021/09/25 02:46:49;;;;;;;7.97;1.33;;;16.70;99.90;;;;;;5034853;28;20108;-89
2021/09/25 02:49:19;;;;;;;8.32;1.33;;;16.70;99.90;;;;;;5035069;28;20029;-87
2021/09/25 02:51:49;;;;;;;4.40;1.67;;;16.70;99.90;;;;;;5034948;28;20022;-87
2021/09/25 02:54:15;;;;;;;5.38;2.20;;;16.70;99.90;;;;;;5036155;28;20022;-89
2021/09/25 02:56:41;;;;;;;9.45;1.90;;;19.10;99.90;;;;;;5034789;28;20143;-87
2021/09/25 02:59:07;;;;;;;3.78;1.30;;;18.10;99.90;;;;;;5034482;28;20013;-88
2021/09/25 03:01:33;;;;;;;4.75;1.27;;;16.50;99.90;;;;;;5034642;28;20024;-87
2021/09/25 03:03:58;;;;;;;9.05;2.45;;;16.40;99.90;;;;;;5034908;28;20025;-88
2021/09/25 03:06:25;;;;;;;8.45;2.42;;;18.20;99.90;;;;;;5034818;28;20108;-88
2021/09/25 03:08:52;;;;;;;5.50;1.95;;;16.70;99.90;;;;;;5034345;28;20027;-88
2021/09/25 03:11:18;;;;;;;8.13;2.15;;;16.90;99.90;;;;;;5034519;28;20030;-88
2021/09/25 03:13:44;;;;;;;8.98;1.70;;;18.10;99.90;;;;;;5036142;28;20021;-87
2021/09/25 03:16:10;;;;;;;7.75;2.90;;;18.00;99.90;;;;;;5034456;28;20068;-89
2021/09/25 03:18:36;;;;;;;11.00;2.47;;;16.50;99.90;;;;;;5034616;28;20022;-87
2021/09/25 03:21:01;;;;;;;3.83;1.80;;;17.70;99.90;;;;;;5034720;28;20017;-88
2021/09/25 03:23:27;;;;;;;7.68;2.55;;;18.10;99.90;;;;;;5036174;28;20474;-86
2021/09/25 03:25:53;;;;;;;7.78;2.70;;;16.80;99.90;;;;;;5034086;28;20030;-88
2021/09/25 03:28:19;;;;;;;5.25;1.75;;;16.60;99.90;;;;;;5034347;28;20083;-88
2021/09/25 03:30:47;;;;;;;10.73;1.95;;;16.50;99.90;;;;;;5034644;28;20029;-88
2021/09/25 03:33:13;;;;;;;5.57;1.70;;;17.60;99.90;;;;;;5035684;28;20084;-88
2021/09/25 03:35:42;;;;;;;11.57;3.72;;;18.00;99.90;;;;;;5035222;28;20485;-89
2021/09/25 03:38:08;;;;;;;7.75;2.70;;;18.30;99.90;;;;;;5034984;28;20033;-88
2021/09/25 03:40:33;;;;;;;7.85;2.85;;;16.90;99.90;;;;;;5039138;28;20026;-88
2021/09/25 03:42:59;;;;;;;8.52;4.18;;;16.90;99.90;;;;;;5038495;28;20048;-88
2021/09/25 03:45:25;;;;;;;7.93;3.45;;;16.90;99.90;;;;;;5038263;28;20477;-88
2021/09/25 03:47:55;;;;;;;10.65;3.08;;;18.00;99.90;;;;;;5038019;28;20028;-88
2021/09/25 03:50:20;;;;;;;13.52;3.03;;;16.30;99.90;;;;;;5038986;28;20390;-87
2021/09/25 03:52:46;;;;;;;10.80;4.03;;;17.70;99.90;;;;;;5039006;28;20021;-88
2021/09/25 03:55:11;;;;;;;7.63;2.47;;;16.40;99.90;;;;;;5038125;28;20021;-88
2021/09/25 03:57:37;;;;;;;6.85;3.20;;;16.20;99.90;;;;;;5037974;28;20482;-87
2021/09/25 04:00:04;;;;;;;10.00;3.58;;;16.90;99.90;;;;;;5037913;28;20025;-87
2021/09/25 04:02:30;;;;;;;12.90;3.92;;;16.40;99.90;;;;;;5037652;28;20013;-86
2021/09/25 04:04:56;;;;;;;10.52;3.28;;;16.40;99.90;;;;;;5037182;28;20056;-87
2021/09/25 04:07:21;;;;;;;8.43;3.15;;;16.30;99.90;;;;;;5037517;28;20083;-88
2021/09/25 04:09:47;;;;;;;9.45;2.88;;;16.30;99.90;;;;;;5038167;28;20428;-88
2021/09/25 04:12:13;;;;;;;21.40;3.55;;;16.30;99.90;;;;;;5037606;28;20142;-86
2021/09/25 04:14:39;;;;;;;9.88;2.70;;;16.40;99.90;;;;;;5037950;28;20457;-88
2021/09/25 04:17:04;;;;;;;6.00;3.33;;;16.30;99.90;;;;;;5037626;28;20025;-88
2021/09/25 04:19:30;;;;;;;11.23;3.60;;;16.30;99.90;;;;;;5036744;28;20059;-89
2021/09/25 04:21:55;;;;;;;7.53;3.10;;;16.20;99.90;;;;;;5037871;28;20373;-87
2021/09/25 04:24:21;;;;;;;16.63;3.47;;;16.60;99.90;;;;;;5036407;28;20041;-88
2021/09/25 04:26:47;;;;;;;9.38;3.65;;;16.50;99.90;;;;;;5037964;28;20097;-88
2021/09/25 04:29:12;;;;;;;9.95;3.85;;;16.20;99.90;;;;;;5037344;28;20029;-87
2021/09/25 04:31:39;;;;;;;8.85;3.13;;;16.10;99.90;;;;;;5038314;28;20030;-88
2021/09/25 04:34:05;;;;;;;7.07;3.50;;;16.90;99.90;;;;;;5037435;28;20024;-88
2021/09/25 04:36:31;;;;;;;11.10;3.13;;;16.20;99.90;;;;;;5036343;28;20109;-88
2021/09/25 04:38:58;;;;;;;9.50;4.10;;;16.10;99.90;;;;;;5037318;28;20041;-88
2021/09/25 04:41:24;;;;;;;8.65;3.15;;;17.70;99.90;;;;;;5036063;28;20032;-88
2021/09/25 04:43:50;;;;;;;12.18;4.07;;;16.00;99.90;;;;;;5038754;28;20124;-88
2021/09/25 04:46:15;;;;;;;8.43;3.40;;;16.00;99.90;;;;;;5038959;28;20149;-88
2021/09/25 04:48:41;;;;;;;10.18;4.85;;;16.10;99.90;;;;;;5043488;28;20512;-88
2021/09/25 04:51:07;;;;;;;8.82;3.33;;;17.40;99.90;;;;;;5037100;28;20052;-89
2021/09/25 04:53:32;;;;;;;11.10;3.90;;;17.00;99.90;;;;;;5038363;28;20026;-88
2021/09/25 04:55:58;;;;;;;10.10;3.63;;;16.90;99.90;;;;;;5038286;28;20014;-88
2021/09/25 04:58:29;;;;;;;9.82;4.25;;;16.50;99.90;;;;;;5039426;28;20018;-89
2021/09/25 05:00:58;;;;;;;13.45;4.63;;;15.90;99.90;;;;;;5039507;28;20532;-88
2021/09/25 05:03:24;;;;;;;;;;;16.10;99.90;;;;;;5039797;28;20091;-89
2021/09/25 05:05:50;;;;;;;14.10;4.20;;;17.00;99.90;;;;;;5040926;28;19905;-89
2021/09/25 05:08:15;;;;;;;12.07;4.55;;;16.00;99.90;;;;;;5039309;28;20144;-89
2021/09/25 05:10:41;;;;;;;9.18;3.60;;;16.30;99.90;;;;;;5039180;28;20025;-89
2021/09/25 05:13:07;;;;;;;12.88;4.70;;;15.40;99.90;;;;;;5038685;28;20095;-89
2021/09/25 05:15:32;;;;;;;9.55;3.83;;;16.00;99.90;;;;;;5037912;28;20041;-89
2021/09/25 05:17:58;;;;;;;10.15;4.15;;;18.60;99.90;;;;;;5039154;28;20021;-89
2021/09/25 05:20:24;;;;;;;11.30;4.65;;;18.40;99.90;;;;;;5038422;28;20156;-89
2021/09/25 05:22:49;;;;;;;11.30;4.25;;;16.00;99.90;;;;;;5037513;28;20025;-89
2021/09/25 05:25:15;;;;;;;9.18;3.85;;;19.00;99.90;;;;;;5037245;28;20034;-88
2021/09/25 05:27:42;;;;;;;10.27;3.95;;;15.90;99.90;;;;;;5038282;28;20022;-88
2021/09/25 05:30:09;;;;;;;12.18;4.80;;;18.70;99.90;;;;;;5037681;28;20056;-88
2021/09/25 05:32:35;;;;;;;14.38;5.22;;;16.10;99.90;;;;;;5036567;28;20041;-88
2021/09/25 05:35:01;;;;;;;14.30;4.38;;;17.70;99.90;;;;;;5035994;28;20378;-88
2021/09/25 05:37:27;;;;;;;14.13;4.70;;;16.20;99.90;;;;;;5035729;28;20021;-88
2021/09/25 05:39:55;;;;;;;13.18;3.95;;;16.20;99.90;;;;;;5036044;28;20037;-88
2021/09/25 05:42:23;;;;;;;14.20;4.65;;;16.00;99.90;;;;;;5035756;28;20025;-87
2021/09/25 05:44:50;;;;;;;17.13;4.43;;;16.20;99.90;;;;;;5036964;28;20025;-87
2021/09/25 05:47:16;;;;;;;13.85;4.60;;;18.70;99.90;;;;;;5036702;28;20025;-87
2021/09/25 05:49:44;;;;;;;14.50;4.85;;;16.20;99.90;;;;;;5035537;28;20039;-88
2021/09/25 05:52:10;;;;;;;13.60;4.78;;;17.00;99.90;;;;;;5035832;28;20026;-88
2021/09/25 05:54:36;;;;;;;15.68;4.63;;;16.00;99.90;;;;;;5035784;28;20026;-88
2021/09/25 05:57:02;;;;;;;11.95;4.38;;;16.80;99.90;;;;;;5036249;28;20018;-88
2021/09/25 05:59:28;;;;;;;13.07;4.88;;;16.20;99.90;;;;;;5035981;28;20450;-88
2021/09/25 06:01:53;;;;;;;15.77;4.72;;;16.10;99.90;;;;;;5035338;28;20028;-88
2021/09/25 06:04:19;;;;;;;26.85;5.25;;;16.70;99.90;;;;;;5034889;28;20474;-87
2021/09/25 06:06:45;;;;;;;11.45;5.00;;;16.90;99.90;;;;;;5035983;28;20072;-88
2021/09/25 06:09:10;;;;;;;13.73;4.75;;;16.10;99.90;;;;;;5036724;28;20036;-88
2021/09/25 06:11:36;;;;;;;15.20;4.97;;;16.20;99.90;;;;;;5036425;28;20033;-89
2021/09/25 06:14:02;;;;;;;12.10;5.00;;;15.60;99.90;;;;;;5035988;28;20032;-88
2021/09/25 06:16:27;;;;;;;13.57;5.13;;;17.90;99.90;;;;;;5035900;28;20159;-89
2021/09/25 06:18:53;;;;;;;10.35;4.53;;;18.20;99.90;;;;;;5036287;28;20014;-89
2021/09/25 06:21:18;;;;;;;13.32;5.05;;;18.70;99.90;;;;;;5038061;28;20081;-89
2021/09/25 06:23:46;;;;;;;17.38;5.75;;;18.20;99.90;;;;;;5036178;28;20034;-88
2021/09/25 06:26:12;;;;;;;16.15;6.30;;;16.40;99.90;;;;;;5037092;28;20022;-88
2021/09/25 06:28:38;;;;;;;16.88;6.15;;;16.50;99.90;;;;;;5035294;28;20025;-89
2021/09/25 06:31:04;;;;;;;18.05;6.55;;;16.50;99.90;;;;;;5037425;28;20116;-89
2021/09/25 06:33:29;;;;;;;16.88;6.13;;;16.80;99.90;;;;;;5035929;28;20459;-89
2021/09/25 06:35:55;;;;;;;16.20;5.95;;;16.60;99.90;;;;;;5035825;28;20085;-87
2021/09/25 06:38:21;;;;;;;15.82;6.32;;;18.10;99.90;;;;;;5035248;28;20033;-89
2021/09/25 06:40:47;;;;;;;16.73;5.63;;;19.40;99.90;;;;;;5035143;28;20043;-89
2021/09/25 06:43:13;;;;;;;15.57;6.05;;;17.20;99.90;;;;;;5036127;28;20474;-89
2021/09/25 06:45:39;;;;;;;16.63;5.82;;;16.80;99.90;;;;;;5036166;28;20390;-89
2021/09/25 06:48:06;;;;;;;18.50;7.43;;;17.40;99.90;;;;;;5035813;28;20053;-90
2021/09/25 06:50:32;;;;;;;15.55;5.63;;;17.70;99.90;;;;;;5016158;28;20029;-89
2021/09/25 06:52:57;;;;;;;16.17;6.85;;;18.60;99.90;;;;;;5030913;28;20025;-88
2021/09/25 06:55:23;;;;;;;15.38;5.82;;;16.40;99.90;;;;;;5035030;28;20037;-90
2021/09/25 06:57:49;;;;;;;17.02;6.25;;;16.70;99.90;;;;;;5035746;28;20026;-89
2021/09/25 07:00:15;;;;;;;13.80;5.45;;;16.80;99.90;;;;;;5034899;28;20033;-87
2021/09/25 07:02:41;;;;;;;17.00;6.18;;;16.80;99.90;;;;;;5042131;28;20056;-89
2021/09/25 07:05:08;;;;;;;12.57;6.25;;;16.70;99.90;;;;;;5035001;28;20029;-89
2021/09/25 07:07:34;;;;;;;17.42;6.88;;;16.90;99.90;;;;;;5035674;28;20025;-88
2021/09/25 07:10:00;;;;;;;17.25;5.88;;;17.00;99.90;;;;;;5036734;28;20036;-88
2021/09/25 07:12:26;;;;;;;17.25;6.18;;;18.20;99.90;;;;;;5036486;28;20493;-89
2021/09/25 07:14:53;;;;;;;13.27;5.15;;;19.60;99.90;;;;;;5039985;28;20021;-89
2021/09/25 07:17:18;;;;;;;16.23;4.97;;;17.10;99.90;;;;;;5041557;28;20029;-87
2021/09/25 07:19:44;;;;;;;16.05;6.70;;;17.20;99.90;;;;;;5037913;28;20018;-88
2021/09/25 07:22:10;;;;;;;11.80;5.40;;;19.70;99.90;;;;;;5038225;28;20421;-87
2021/09/25 07:24:36;;;;;;;16.55;5.75;;;18.80;99.90;;;;;;5040195;28;20029;-88
2021/09/25 07:27:03;;;;;;;14.52;5.63;;;17.50;99.90;;;;;;5038340;28;20026;-87
2021/09/25 07:29:28;;;;;;;12.68;5.22;;;17.70;99.90;;;;;;5037520;28;20053;-87
2021/09/25 07:31:54;;;;;;;16.08;5.38;;;17.40;99.90;;;;;;5038608;28;20029;-88
2021/09/25 07:34:20;;;;;;;11.50;6.03;;;17.70;99.90;;;;;;5039209;28;20397;-89
2021/09/25 07:36:46;;;;;;;13.60;4.80;;;19.90;99.90;;;;;;5039086;28;20033;-90
2021/09/25 07:39:12;;;;;;;16.13;5.90;;;17.80;99.90;;;;;;5038530;28;20100;-88
2021/09/25 07:41:37;;;;;;;15.50;6.05;;;17.80;99.90;;;;;;5038083;28;20021;-89
2021/09/25 07:44:06;;;;;;;17.13;6.15;;;19.10;99.90;;;;;;5039312;28;20429;-89
2021/09/25 07:46:33;;;;;;;16.83;6.18;;;17.90;99.90;;;;;;5038697;28;20025;-90
2021/09/25 07:48:59;;;;;;;13.75;6.00;;;17.90;99.90;;;;;;5035767;28;20040;-88
2021/09/25 07:51:28;;;;;;;14.20;5.13;;;20.90;99.90;;;;;;5037746;28;20029;-89
2021/09/25 07:53:59;;;;;;;11.15;4.75;;;20.20;99.90;;;;;;5038385;28;20466;-88
2021/09/25 07:56:25;;;;;;;13.02;5.43;;;15.60;99.90;;;;;;5038496;28;20021;-88
2021/09/25 07:58:50;;;;;;;11.25;5.35;;;18.20;99.90;;;;;;5039150;28;20028;-88
2021/09/25 08:01:16;;;;;;;10.35;4.38;;;18.30;99.90;;;;;;5070788;28;20026;-88
2021/09/25 08:03:43;;;;;;;11.13;5.05;;;20.90;99.90;;;;;;5037662;28;20108;-88
2021/09/25 08:06:12;;;;;;;14.50;5.43;;;18.10;99.90;;;;;;5023696;28;20017;-87
2021/09/25 08:08:38;;;;;;;11.25;5.13;;;18.90;99.90;;;;;;5037302;28;20492;-87
2021/09/25 08:11:04;;;;;;;11.55;4.85;;;18.30;99.90;;;;;;5037936;28;20037;-89
2021/09/25 08:13:30;;;;;;;17.98;6.30;;;20.20;99.90;;;;;;5037161;28;20021;-87
2021/09/25 08:15:55;;;;;;;12.55;5.35;;;18.00;99.90;;;;;;5036717;28;20049;-88
2021/09/25 08:18:21;;;;;;;11.55;5.40;;;20.70;99.90;;;;;;5036057;28;20026;-86
2021/09/25 08:20:47;;;;;;;16.00;5.85;;;18.40;99.90;;;;;;5036864;28;20017;-89
2021/09/25 08:23:12;;;;;;;13.43;6.03;;;18.40;99.90;;;;;;5036319;28;20470;-87
2021/09/25 08:25:38;;;;;;;15.90;5.50;;;20.10;99.90;;;;;;5036098;28;20029;-86
2021/09/25 08:28:04;;;;;;;15.45;6.07;;;19.00;99.90;;;;;;5036189;28;20033;-86
2021/09/25 08:30:30;;;;;;;13.95;5.78;;;18.50;99.90;;;;;;5035646;28;20398;-87
2021/09/25 08:32:57;;;;;;;18.42;5.45;;;18.50;99.90;;;;;;5035576;28;20075;-89
2021/09/25 08:35:24;;;;;;;13.45;5.43;;;18.60;99.90;;;;;;5035698;28;20545;-87
2021/09/25 08:37:50;;;;;;;15.32;6.72;;;18.70;99.90;;;;;;5035276;28;20100;-87
2021/09/25 08:40:21;;;;;;;14.52;6.00;;;18.80;99.90;;;;;;5035190;28;20029;-87
2021/09/25 08:42:47;;;;;;;17.08;6.60;;;18.40;99.90;;;;;;5037736;28;20041;-88
2021/09/25 08:45:13;;;;;;;17.92;7.22;;;18.70;99.90;;;;;;5039997;28;20036;-88
2021/09/25 08:47:39;;;;;;;14.75;6.90;;;18.70;99.90;;;;;;5038425;28;20033;-89
2021/09/25 08:50:06;;;;;;;21.30;8.15;;;20.60;99.90;;;;;;5036213;28;20013;-89
2021/09/25 08:52:33;;;;;;;18.13;7.60;;;18.70;99.90;;;;;;5035699;28;20033;-88
2021/09/25 08:54:59;;;;;;;18.25;6.82;;;18.70;99.90;;;;;;5039283;28;20036;-88
2021/09/25 08:57:24;;;;;;;19.00;6.97;;;18.70;99.90;;;;;;5037693;28;20037;-88
2021/09/25 08:59:50;;;;;;;24.58;7.95;;;20.20;99.90;;;;;;5038913;28;20021;-88
2021/09/25 09:02:25;;;;;;;22.25;7.63;;;19.90;99.90;;;;;;5034928;28;20025;-90
2021/09/25 09:04:54;;;;;;;27.33;9.30;;;20.40;99.90;;;;;;5036355;28;20030;-87
2021/09/25 09:07:26;;;;;;;18.85;7.88;;;19.10;99.90;;;;;;5036351;28;20481;-88
2021/09/25 09:09:52;;;;;;;20.50;8.30;;;20.30;99.90;;;;;;5035549;28;20032;-88
2021/09/25 09:12:25;;;;;;;18.60;7.80;;;22.10;99.90;;;;;;5034780;28;20464;-88
2021/09/25 09:14:53;;;;;;;24.77;7.95;;;21.90;99.90;;;;;;5034477;28;20083;-87
2021/09/25 09:17:28;;;;;;;18.65;6.90;;;19.30;99.90;;;;;;5034524;28;20053;-88
2021/09/25 09:19:54;;;;;;;14.50;6.88;;;21.00;99.90;;;;;;5036101;28;20034;-88
2021/09/25 09:22:22;;;;;;;18.33;7.70;;;21.70;99.90;;;;;;5036916;28;20017;-87
2021/09/25 09:24:50;;;;;;;20.50;8.13;;;19.80;99.90;;;;;;5037756;28;20491;-89
2021/09/25 09:27:22;;;;;;;20.63;8.35;;;19.40;99.90;;;;;;5035940;28;20028;-87
2021/09/25 09:29:47;;;;;;;23.52;8.60;;;19.30;99.90;;;;;;5037849;28;20474;-88
2021/09/25 09:32:13;;;;;;;22.63;8.65;;;20.10;99.90;;;;;;5035692;28;20032;-89
2021/09/25 09:34:42;;;;;;;20.70;8.82;;;19.20;99.90;;;;;;5036295;28;20025;-89
2021/09/25 09:37:19;;;;;;;21.15;8.43;;;19.20;99.90;;;;;;5033907;28;20024;-88
2021/09/25 09:39:59;;;;;;;26.83;10.32;;;19.30;99.90;;;;;;5034410;28;20028;-87
2021/09/25 09:42:30;;;;;;;27.30;10.10;;;19.40;99.90;;;;;;5036429;28;20375;-87
2021/09/25 09:44:56;;;;;;;24.67;9.35;;;20.20;99.90;;;;;;5034698;28;20108;-87
2021/09/25 09:47:22;;;;;;;23.52;10.13;;;19.30;99.90;;;;;;5034590;28;20053;-86
2021/09/25 09:49:55;;;;;;;23.92;9.50;;;19.30;99.90;;;;;;5034763;28;20075;-86
2021/09/25 09:52:24;;;;;;;28.45;11.60;;;19.30;99.90;;;;;;5033647;28;20029;-89
2021/09/25 09:54:53;;;;;;;23.23;10.35;;;21.10;99.90;;;;;;5034287;28;20102;-87
2021/09/25 09:57:20;;;;;;;26.42;11.70;;;20.30;99.90;;;;;;5035794;28;20044;-87
2021/09/25 09:59:47;;;;;;;26.40;10.05;;;20.80;99.90;;;;;;5034686;28;20021;-87
2021/09/25 10:02:15;;;;;;;29.45;12.35;;;20.80;99.90;;;;;;5034197;28;20017;-86
2021/09/25 10:04:44;;;;;;;25.10;9.70;;;19.20;99.90;;;;;;5034072;28;20464;-86
2021/09/25 10:07:10;;;;;;;24.75;10.93;;;19.30;99.90;;;;;;5034634;28;20021;-86
2021/09/25 10:09:37;;;;;;;26.25;10.95;;;18.70;99.90;;;;;;5034543;28;20033;-85
2021/09/25 10:12:14;;;;;;;30.55;10.82;;;21.40;99.90;;;;;;5033223;28;20037;-87
2021/09/25 10:14:43;;;;;;;24.30;10.93;;;19.60;99.90;;;;;;5034092;28;20095;-87
2021/09/25 10:17:11;;;;;;;25.95;12.25;;;19.90;99.90;;;;;;5033179;28;20017;-88
2021/09/25 10:19:39;;;;;;;28.50;12.25;;;20.80;99.90;;;;;;5034992;28;20108;-86
2021/09/25 10:22:18;;;;;;;28.00;11.80;;;20.20;99.90;;;;;;5034221;28;20432;-86
2021/09/25 10:25:00;;;;;;;23.05;11.93;;;19.70;99.90;;;;;;5033340;28;20052;-86
2021/09/25 10:27:37;;;;;;;34.58;11.60;;;19.90;99.90;;;;;;5033718;28;20025;-87
2021/09/25 10:30:05;;;;;;;23.52;11.27;;;19.90;99.90;;;;;;5034180;28;20025;-87
2021/09/25 10:32:44;;;;;;;22.23;10.95;;;20.00;99.90;;;;;;5034474;28;20018;-90
2021/09/25 10:35:17;;;;;;;25.85;11.30;;;20.00;99.90;;;;;;5034450;28;20563;-88
2021/09/25 10:37:50;;;;;;;25.75;11.43;;;20.00;99.90;;;;;;5067848;28;20504;-88
2021/09/25 10:40:24;;;;;;;26.17;11.48;;;20.20;99.90;;;;;;5068209;28;20462;-90
2021/09/25 10:42:55;;;;;;;25.63;11.05;;;20.20;99.90;;;;;;5034666;28;20022;-88
2021/09/25 10:45:27;;;;;;;24.65;11.73;;;20.70;99.90;;;;;;5035238;28;20029;-89
2021/09/25 10:48:14;;;;;;;22.38;10.30;;;20.10;99.90;;;;;;5033742;28;20473;-88
2021/09/25 10:50:51;;;;;;;26.00;10.93;;;20.10;99.90;;;;;;5048829;28;20382;-90
2021/09/25 10:53:18;;;;;;;25.45;11.00;;;20.20;99.90;;;;;;5033964;28;20178;-88
2021/09/25 10:55:46;;;;;;;25.27;10.93;;;20.50;99.90;;;;;;5034033;28;20028;-88
2021/09/25 10:58:23;;;;;;;29.38;11.50;;;20.70;99.90;;;;;;5034229;28;20025;-87
2021/09/25 11:01:03;;;;;;;21.17;10.50;;;20.50;99.90;;;;;;5034592;28;20124;-88
2021/09/25 11:03:46;;;;;;;23.77;10.95;;;20.70;99.90;;;;;;5034893;28;20088;-89
2021/09/25 11:06:25;;;;;;;26.50;11.57;;;22.90;99.90;;;;;;5066388;28;20371;-87
2021/09/25 11:09:21;;;;;;;27.02;11.75;;;21.00;99.90;;;;;;5035990;28;20041;-90
2021/09/25 11:11:48;;;;;;;22.90;11.82;;;19.70;99.90;;;;;;5067319;28;20116;-88
2021/09/25 11:14:29;;;;;;;21.60;12.35;;;22.70;99.90;;;;;;5033686;28;20496;-87
2021/09/25 11:16:57;;;;;;;23.25;11.32;;;21.00;99.90;;;;;;5034105;28;20048;-89
2021/09/25 11:19:26;;;;;;;23.23;11.15;;;23.40;99.90;;;;;;5033613;28;20503;-89
2021/09/25 11:21:57;;;;;;;23.58;10.98;;;23.10;99.90;;;;;;5035089;28;20101;-89
2021/09/25 11:24:24;;;;;;;26.33;11.68;;;24.10;99.90;;;;;;5033866;28;20060;-89
2021/09/25 11:26:50;;;;;;;24.50;11.80;;;21.30;99.90;;;;;;5033969;28;20171;-87
2021/09/25 11:29:19;;;;;;;21.90;11.05;;;23.50;99.90;;;;;;5032866;28;20022;-87
2021/09/25 11:31:49;;;;;;;24.20;11.10;;;24.10;99.90;;;;;;5034708;28;20025;-89
2021/09/25 11:34:23;;;;;;;24.55;11.63;;;23.80;99.90;;;;;;5033573;28;20499;-87
2021/09/25 11:36:57;;;;;;;27.88;10.95;;;21.00;99.90;;;;;;5033722;28;20466;-87
2021/09/25 11:39:34;;;;;;;24.75;11.55;;;21.20;99.90;;;;;;5035201;28;20041;-91
2021/09/25 11:42:12;;;;;;;20.30;11.27;;;22.90;99.90;;;;;;5033720;28;20026;-87
2021/09/25 11:44:59;;;;;;;24.60;12.05;;;21.00;99.90;;;;;;5033575;28;20398;-87
2021/09/25 11:47:37;;;;;;;22.95;11.55;;;23.20;99.90;;;;;;5034315;28;20359;-89
2021/09/25 11:50:23;;;;;;;24.60;12.17;;;22.80;99.90;;;;;;5033294;28;20037;-88
2021/09/25 11:52:55;;;;;;;23.35;12.18;;;21.20;99.90;;;;;;5034252;28;20064;-89
2021/09/25 11:55:25;;;;;;;22.13;12.50;;;21.60;99.90;;;;;;5033619;28;20018;-88
2021/09/25 11:58:02;;;;;;;27.88;13.38;;;21.80;99.90;;;;;;5035562;28;20037;-88
2021/09/25 12:03:00;;;;;;;28.92;13.15;;;22.20;99.90;;;;;;5017825;28;20042;-75
2021/09/25 12:05:33;;;;;;;24.77;11.90;;;22.40;99.90;;;;;;5019871;28;20026;-75
2021/09/25 12:08:01;;;;;;;23.98;12.88;;;22.60;99.90;;;;;;5002177;28;20114;-75
2021/09/25 12:10:42;;;;;;;22.92;11.88;;;22.90;99.90;;;;;;5000851;28;20024;-75
2021/09/25 12:13:14;;;;;;;24.40;11.50;;;23.40;99.90;;;;;;4982857;28;20076;-74
2021/09/25 12:15:42;;;;;;;20.48;11.40;;;23.60;99.90;;;;;;4983188;28;20534;-75
2021/09/25 12:18:24;;;;;;;25.67;11.43;;;23.60;99.90;;;;;;5000421;28;20026;-75
2021/09/25 12:20:52;;;;;;;23.73;12.10;;;23.40;99.90;;;;;;4982964;28;20030;-75
2021/09/25 12:23:20;;;;;;;;;;;23.50;99.90;;;;;;5000551;28;20019;-74
2021/09/25 12:25:46;;;;;;;26.87;11.23;;;23.40;99.90;;;;;;4982975;28;19960;-75
2021/09/25 12:28:32;;;;;;;28.80;12.05;;;23.30;99.90;;;;;;4999331;28;20033;-75
2021/09/25 12:31:01;;;;;;;22.38;11.32;;;23.00;99.90;;;;;;5000810;28;20038;-75
2021/09/25 12:33:27;;;;;;;20.00;11.63;;;22.90;99.90;;;;;;4982419;28;20026;-75
2021/09/25 12:36:09;;;;;;;19.95;11.13;;;22.90;99.90;;;;;;4999795;28;20029;-74
2021/09/25 12:38:40;;;;;;;20.63;11.57;;;22.80;99.90;;;;;;4982873;28;20069;-76
2021/09/25 12:41:10;;;;;;;20.10;11.48;;;22.60;99.90;;;;;;4999682;28;20019;-74
2021/09/25 12:43:41;;;;;;;24.08;10.93;;;22.70;99.90;;;;;;4999791;28;20041;-74